Time;durP1;ratioP1;P1;durP2;ratioP2;P2;SDS_P1;SDS_P2;PMS_P1;PMS_P2;Temp;Humidity;BMP_temperature;BMP_pressure;BME280_temperature;BME280_humidity;BME280_pressure;Samples;Min_cycle;Max_cycle;Signal;HPM_P1;HPM_P2
2023/08/31 00:01:48;;;;;;;5.15;4.00;;;;;;;;;;5081470;28;20028;-53
2023/08/31 00:04:15;;;;;;;6.32;4.10;;;;;;;;;;5117076;28;20023;-49
2023/08/31 00:06:45;;;;;;;5.97;4.07;;;18.90;99.90;;;;;;5117179;28;20440;-53
2023/08/31 00:09:11;;;;;;;5.70;3.47;;;19.20;99.90;;;;;;5117079;28;20039;-53
2023/08/31 00:11:37;;;;;;;5.57;4.07;;;19.40;99.90;;;;;;5116723;28;20036;-50
2023/08/31 00:14:03;;;;;;;7.90;3.63;;;19.30;99.90;;;;;;5117038;28;20023;-51
2023/08/31 00:16:30;;;;;;;5.65;3.67;;;;;;;;;;5064507;28;20038;-53
2023/08/31 00:18:59;;;;;;;4.20;3.78;;;;;;;;;;5116868;28;20069;-50
2023/08/31 00:21:25;;;;;;;5.18;4.30;;;;;;;;;;5116428;28;20055;-53
2023/08/31 00:23:51;;;;;;;6.93;4.38;;;18.10;99.90;;;;;;5116780;28;20057;-51
2023/08/31 00:26:17;;;;;;;9.93;4.97;;;;;;;;;;5064288;28;20039;-49
2023/08/31 00:28:44;;;;;;;6.03;4.53;;;17.80;99.90;;;;;;5116883;28;20034;-49
2023/08/31 00:31:10;;;;;;;6.63;4.85;;;17.70;99.90;;;;;;5116494;28;20054;-51
2023/08/31 00:33:38;;;;;;;5.97;5.03;;;17.70;99.90;;;;;;5116446;28;20070;-50
2023/08/31 00:36:04;;;;;;;6.43;4.88;;;18.10;99.90;;;;;;5116731;28;20019;-53
2023/08/31 00:38:31;;;;;;;7.38;5.15;;;;;;;;;;5116815;28;20028;-49
2023/08/31 00:40:57;;;;;;;5.93;5.18;;;18.40;99.90;;;;;;5116528;28;20035;-51
2023/08/31 00:43:23;;;;;;;6.22;5.00;;;18.40;99.90;;;;;;5116630;28;20030;-52
2023/08/31 00:45:51;;;;;;;13.73;6.00;;;;;;;;;;5116182;28;20028;-51
2023/08/31 00:48:17;;;;;;;8.55;5.57;;;;;;;;;;5078055;28;20478;-51
2023/08/31 00:50:47;;;;;;;6.78;5.22;;;;;;;;;;5116513;28;20032;-50
2023/08/31 00:53:16;;;;;;;11.48;5.70;;;;;;;;;;5116138;28;20027;-53
2023/08/31 00:55:44;;;;;;;6.88;5.65;;;;;;;;;;5116115;28;20031;-52
2023/08/31 00:58:10;;;;;;;10.13;6.28;;;;;;;;;;5116152;28;20043;-51
2023/08/31 01:00:40;;;;;;;7.90;5.82;;;;;;;;;;5080104;28;20110;-51
2023/08/31 01:03:10;;;;;;;6.43;5.82;;;;;;;;;;5115935;28;20054;-53
2023/08/31 01:05:36;;;;;;;8.55;6.15;;;;;;;;;;5115792;28;20046;-49
2023/08/31 01:08:22;;;;;;;9.00;7.10;;;;;;;;;;5115832;28;20375;-50
2023/08/31 01:11:12;;;;;;;6.93;6.25;;;17.50;99.90;;;;;;5115651;28;20466;-52
2023/08/31 01:13:44;;;;;;;9.45;6.20;;;17.50;99.90;;;;;;5115686;28;20032;-50
2023/08/31 01:16:11;;;;;;;6.63;5.45;;;17.10;99.90;;;;;;5115752;28;20031;-53
2023/08/31 01:18:39;;;;;;;8.32;6.05;;;17.10;99.90;;;;;;5116001;28;20031;-53
2023/08/31 01:21:24;;;;;;;8.57;6.72;;;17.00;99.90;;;;;;5115679;28;20059;-51
2023/08/31 01:23:56;;;;;;;8.80;7.40;;;17.30;99.90;;;;;;5115776;28;20106;-49
2023/08/31 01:26:23;;;;;;;8.82;7.20;;;17.40;99.90;;;;;;5063162;28;20483;-49
2023/08/31 01:28:50;;;;;;;9.52;7.55;;;17.50;99.90;;;;;;5063042;28;20084;-51
2023/08/31 01:31:16;;;;;;;9.27;7.70;;;17.70;99.90;;;;;;5115567;28;20449;-52
2023/08/31 01:33:42;;;;;;;9.13;7.75;;;18.10;99.90;;;;;;5115294;28;20463;-53
2023/08/31 01:36:25;;;;;;;8.43;7.55;;;18.40;99.90;;;;;;5115390;28;20028;-51
2023/08/31 01:39:06;;;;;;;13.57;8.95;;;18.60;99.90;;;;;;5096415;28;20032;-52
2023/08/31 01:41:35;;;;;;;9.85;6.85;;;18.70;99.90;;;;;;5115132;28;20488;-52
2023/08/31 01:44:02;;;;;;;13.40;7.28;;;18.70;99.90;;;;;;5115494;28;20031;-53
2023/08/31 01:46:29;;;;;;;11.07;7.07;;;18.80;99.90;;;;;;5115193;28;20070;-51
2023/08/31 01:48:55;;;;;;;9.25;6.90;;;18.90;99.90;;;;;;5115255;28;20035;-49
2023/08/31 01:51:20;;;;;;;9.00;6.88;;;18.90;99.90;;;;;;5115102;28;20099;-50
2023/08/31 01:53:46;;;;;;;7.80;6.90;;;19.00;99.90;;;;;;5115228;28;20027;-50
2023/08/31 01:56:13;;;;;;;8.68;6.75;;;19.00;99.90;;;;;;5079501;28;20489;-52
2023/08/31 01:58:39;;;;;;;9.07;7.05;;;19.10;99.90;;;;;;5114855;28;20106;-52
2023/08/31 02:01:05;;;;;;;10.20;7.25;;;19.00;99.90;;;;;;5114866;28;20116;-51
2023/08/31 02:03:31;;;;;;;7.45;6.65;;;18.90;99.90;;;;;;5079086;28;20038;-50
2023/08/31 02:05:57;;;;;;;8.50;7.30;;;19.00;99.90;;;;;;5114686;28;20035;-52
2023/08/31 02:08:23;;;;;;;7.20;6.38;;;19.00;99.90;;;;;;5114711;28;20494;-54
2023/08/31 02:10:49;;;;;;;9.43;5.90;;;19.10;99.90;;;;;;5045683;28;20028;-52
2023/08/31 02:13:15;;;;;;;8.60;5.82;;;19.10;99.90;;;;;;5115021;28;20031;-50
2023/08/31 02:15:42;;;;;;;7.97;6.78;;;18.90;99.90;;;;;;5108202;28;20116;-52
2023/08/31 02:18:08;;;;;;;9.32;7.50;;;18.90;99.90;;;;;;5094540;28;20034;-52
2023/08/31 02:20:34;;;;;;;9.77;7.15;;;18.90;99.90;;;;;;5093532;28;20442;-51
2023/08/31 02:23:00;;;;;;;8.18;6.88;;;19.00;99.90;;;;;;5058539;28;20036;-49
2023/08/31 02:25:27;;;;;;;9.23;7.95;;;19.00;99.90;;;;;;5094081;28;20030;-53
2023/08/31 02:27:54;;;;;;;10.18;7.38;;;18.80;99.90;;;;;;5094062;28;20028;-48
2023/08/31 02:30:19;;;;;;;9.05;7.03;;;18.40;99.90;;;;;;5093909;28;20016;-49
2023/08/31 02:32:45;;;;;;;12.50;6.95;;;18.40;99.90;;;;;;5093720;28;20490;-53
2023/08/31 02:35:12;;;;;;;9.57;7.05;;;18.10;99.90;;;;;;5093850;28;20024;-50
2023/08/31 02:37:38;;;;;;;9.65;6.93;;;18.10;99.90;;;;;;5093894;28;20471;-51
2023/08/31 02:40:06;;;;;;;8.90;6.88;;;18.30;99.90;;;;;;5058222;28;20039;-50
2023/08/31 02:42:31;;;;;;;14.15;8.88;;;18.10;99.90;;;;;;5058980;28;20115;-52
2023/08/31 02:44:57;;;;;;;14.05;7.47;;;18.20;99.90;;;;;;5093769;28;20112;-52
2023/08/31 02:47:23;;;;;;;10.07;7.85;;;18.40;99.90;;;;;;5094121;28;20025;-49
2023/08/31 02:49:48;;;;;;;10.45;7.60;;;18.50;99.90;;;;;;5058396;28;20039;-52
2023/08/31 02:52:14;;;;;;;10.75;7.03;;;18.60;99.90;;;;;;4992151;28;20048;-50
2023/08/31 02:54:40;;;;;;;9.98;6.72;;;18.60;99.90;;;;;;5093682;28;20032;-49
2023/08/31 02:57:07;;;;;;;10.73;6.95;;;18.50;99.90;;;;;;5094135;28;20109;-51
2023/08/31 02:59:35;;;;;;;9.35;7.10;;;18.50;99.90;;;;;;5093611;28;20031;-50
2023/08/31 03:02:02;;;;;;;8.65;7.03;;;18.70;99.90;;;;;;5042873;28;20122;-52
2023/08/31 03:04:28;;;;;;;11.07;7.30;;;18.70;99.90;;;;;;5074969;28;20111;-53
2023/08/31 03:06:54;;;;;;;10.90;7.82;;;18.80;99.90;;;;;;5093475;28;20101;-52
2023/08/31 03:09:20;;;;;;;10.38;7.80;;;18.70;99.90;;;;;;5093978;28;20032;-53
2023/08/31 03:11:46;;;;;;;9.10;6.38;;;18.70;99.90;;;;;;5093050;28;20035;-51
2023/08/31 03:14:12;;;;;;;11.18;6.40;;;18.70;99.90;;;;;;5093499;28;20024;-51
2023/08/31 03:16:37;;;;;;;11.48;6.20;;;18.60;99.90;;;;;;5093488;28;20020;-52
2023/08/31 03:19:05;;;;;;;11.48;7.07;;;18.70;99.90;;;;;;5093812;28;20036;-51
2023/08/31 03:21:31;;;;;;;8.07;7.28;;;18.80;99.90;;;;;;5074441;28;20048;-49
2023/08/31 03:23:56;;;;;;;11.10;7.70;;;18.60;99.90;;;;;;5093244;28;20099;-49
2023/08/31 03:26:22;;;;;;;15.00;8.15;;;18.30;99.90;;;;;;5093292;28;20524;-51
2023/08/31 03:28:48;;;;;;;14.80;8.30;;;17.70;99.90;;;;;;5041346;28;20044;-51
2023/08/31 03:31:13;;;;;;;10.73;7.55;;;17.50;99.90;;;;;;5093174;28;20036;-50
2023/08/31 03:33:39;;;;;;;10.50;7.43;;;17.60;99.90;;;;;;5011302;28;20123;-53
2023/08/31 03:36:05;;;;;;;10.02;7.60;;;17.90;99.90;;;;;;5097130;28;20372;-53
2023/08/31 03:38:31;;;;;;;12.13;7.95;;;18.10;99.90;;;;;;5012305;28;20185;-51
2023/08/31 03:40:58;;;;;;;11.55;7.78;;;18.30;99.90;;;;;;5097449;28;20375;-53
2023/08/31 03:43:24;;;;;;;7.88;6.82;;;18.30;99.90;;;;;;5078486;28;20067;-51
2023/08/31 03:45:55;;;;;;;9.10;7.93;;;18.50;99.90;;;;;;5097568;28;20052;-51
2023/08/31 03:48:22;;;;;;;12.45;7.43;;;18.60;99.90;;;;;;5097301;28;20040;-52
2023/08/31 03:50:54;;;;;;;11.18;7.78;;;18.60;99.90;;;;;;5096919;28;20066;-52
2023/08/31 03:53:20;;;;;;;9.00;7.10;;;18.60;99.90;;;;;;5061582;28;20127;-49
2023/08/31 03:55:45;;;;;;;9.48;7.78;;;18.60;99.90;;;;;;5028355;28;20123;-50
2023/08/31 03:58:11;;;;;;;11.98;7.88;;;18.70;99.90;;;;;;5096936;28;20090;-52
2023/08/31 04:00:38;;;;;;;11.48;7.68;;;18.60;99.90;;;;;;5096931;28;20020;-51
2023/08/31 04:03:04;;;;;;;9.48;6.65;;;18.70;99.90;;;;;;5096974;28;20387;-51
2023/08/31 04:05:34;;;;;;;8.15;6.85;;;18.70;99.90;;;;;;5045011;28;20484;-53
2023/08/31 04:08:00;;;;;;;8.00;6.93;;;18.70;99.90;;;;;;5044548;28;20036;-51
2023/08/31 04:10:26;;;;;;;15.00;7.65;;;18.80;99.90;;;;;;5096966;28;20412;-52
2023/08/31 04:12:52;;;;;;;9.63;7.55;;;18.80;99.90;;;;;;5096529;28;20495;-52
2023/08/31 04:15:18;;;;;;;8.75;6.90;;;18.70;99.90;;;;;;5096537;28;20020;-49
2023/08/31 04:17:44;;;;;;;13.23;8.93;;;18.70;99.90;;;;;;5044632;28;20062;-52
2023/08/31 04:20:11;;;;;;;9.70;8.48;;;18.80;99.90;;;;;;5077600;28;20480;-51
2023/08/31 04:22:36;;;;;;;8.93;8.02;;;18.90;99.90;;;;;;5037471;28;20059;-52
2023/08/31 04:25:03;;;;;;;12.20;7.38;;;18.90;99.90;;;;;;5054019;28;20036;-50
2023/08/31 04:27:31;;;;;;;10.57;7.55;;;19.00;99.90;;;;;;5037657;28;20048;-49
2023/08/31 04:29:58;;;;;;;9.55;7.38;;;19.00;99.90;;;;;;5055854;28;20087;-52
2023/08/31 04:32:25;;;;;;;10.20;7.25;;;18.90;99.90;;;;;;5055924;28;20025;-49
2023/08/31 04:34:51;;;;;;;10.10;7.38;;;18.90;99.90;;;;;;5056204;28;20036;-52
2023/08/31 04:37:17;;;;;;;8.38;6.70;;;19.00;99.90;;;;;;5055791;28;20052;-49
2023/08/31 04:39:43;;;;;;;12.88;8.38;;;18.90;99.90;;;;;;5055813;28;20396;-50
2023/08/31 04:42:09;;;;;;;33.58;9.52;;;18.80;99.90;;;;;;5055751;28;20039;-50
2023/08/31 04:44:35;;;;;;;12.95;8.07;;;18.20;99.90;;;;;;5055623;28;20028;-49
2023/08/31 04:47:01;;;;;;;15.30;8.85;;;18.30;99.90;;;;;;5055502;28;20036;-53
2023/08/31 04:49:26;;;;;;;11.77;7.53;;;18.60;99.90;;;;;;5281478;23;20050;-53
2023/08/31 04:51:52;;;;;;;9.88;7.68;;;18.70;99.90;;;;;;5035704;28;20041;-53
2023/08/31 04:54:18;;;;;;;12.80;8.00;;;18.60;99.90;;;;;;4984678;28;20064;-54
2023/08/31 04:56:44;;;;;;;12.38;7.57;;;18.70;99.90;;;;;;5001270;28;20384;-54
2023/08/31 04:59:10;;;;;;;11.80;7.40;;;18.90;99.90;;;;;;5035606;28;20026;-58
2023/08/31 05:01:36;;;;;;;10.43;8.63;;;19.10;99.90;;;;;;5035959;28;20026;-52
2023/08/31 05:04:03;;;;;;;12.40;7.97;;;19.20;99.90;;;;;;5035251;28;20034;-52
2023/08/31 05:06:29;;;;;;;8.77;7.45;;;19.40;99.90;;;;;;4984329;28;20492;-53
2023/08/31 05:08:55;;;;;;;11.68;9.98;;;19.50;99.90;;;;;;5034683;28;20028;-57
2023/08/31 05:11:20;;;;;;;11.02;8.88;;;19.60;99.90;;;;;;5024503;28;20048;-54
2023/08/31 05:13:48;;;;;;;9.45;8.10;;;19.80;99.90;;;;;;5034824;28;20032;-52
2023/08/31 05:16:14;;;;;;;9.05;8.10;;;19.80;99.90;;;;;;5034727;28;20033;-57
2023/08/31 05:18:42;;;;;;;10.02;8.27;;;19.90;99.90;;;;;;5007992;28;20083;-56
2023/08/31 05:21:08;;;;;;;9.38;8.07;;;20.00;99.90;;;;;;5034090;28;20091;-54
2023/08/31 05:23:34;;;;;;;13.63;8.60;;;20.10;99.90;;;;;;5034639;28;20104;-56
2023/08/31 05:26:01;;;;;;;12.20;8.32;;;20.20;99.90;;;;;;4984633;28;20129;-53
2023/08/31 05:28:27;;;;;;;9.00;7.72;;;20.40;99.90;;;;;;5034877;28;20495;-56
2023/08/31 05:30:54;;;;;;;9.82;8.13;;;20.40;99.90;;;;;;5034645;28;20481;-53
2023/08/31 05:33:22;;;;;;;13.70;8.15;;;19.40;99.90;;;;;;5033354;28;20030;-54
2023/08/31 05:35:48;;;;;;;8.82;7.70;;;19.50;99.90;;;;;;5033735;28;20473;-55
2023/08/31 05:38:14;;;;;;;8.55;7.57;;;19.10;99.90;;;;;;5033753;28;20029;-53
2023/08/31 05:40:45;;;;;;;13.75;8.88;;;18.90;99.90;;;;;;4966378;28;20033;-56
2023/08/31 05:43:11;;;;;;;9.27;8.17;;;18.70;99.90;;;;;;5034093;28;20033;-54
2023/08/31 05:45:36;;;;;;;10.85;8.07;;;18.50;99.90;;;;;;5033871;28;20472;-51
2023/08/31 05:48:02;;;;;;;12.15;8.80;;;18.20;99.90;;;;;;5033497;28;20025;-53
2023/08/31 05:50:29;;;;;;;13.30;9.13;;;18.20;99.90;;;;;;4992268;28;20068;-56
2023/08/31 05:52:55;;;;;;;13.93;9.32;;;18.40;99.90;;;;;;5014988;28;20048;-53
2023/08/31 05:55:21;;;;;;;11.05;7.38;;;18.30;99.90;;;;;;5032711;28;20030;-55
2023/08/31 05:57:47;;;;;;;12.15;9.32;;;18.20;99.90;;;;;;5033317;28;20029;-55
2023/08/31 06:00:13;;;;;;;13.10;8.70;;;18.30;99.90;;;;;;5033343;28;20024;-53
2023/08/31 06:02:39;;;;;;;12.20;8.63;;;18.70;99.90;;;;;;5033163;28;20025;-53
2023/08/31 06:05:05;;;;;;;13.27;9.80;;;19.00;99.90;;;;;;4998354;28;20414;-53
2023/08/31 06:07:31;;;;;;;12.50;9.10;;;18.80;99.90;;;;;;4998614;28;20077;-52
2023/08/31 06:09:57;;;;;;;12.40;7.80;;;19.40;99.90;;;;;;5034091;28;20022;-53
2023/08/31 06:12:23;;;;;;;12.25;8.23;;;19.90;99.90;;;;;;5033997;28;20438;-58
2023/08/31 06:14:49;;;;;;;11.40;8.43;;;20.00;99.90;;;;;;5034473;28;20443;-56
2023/08/31 06:17:15;;;;;;;18.88;9.95;;;19.80;99.90;;;;;;4983540;28;20078;-53
2023/08/31 06:19:41;;;;;;;14.23;10.60;;;;;;;;;;5033349;28;20464;-51
2023/08/31 06:22:07;;;;;;;12.77;9.52;;;;;;;;;;5007294;28;20045;-56
2023/08/31 06:24:34;;;;;;;12.88;9.48;;;;;;;;;;5033580;28;20441;-53
2023/08/31 06:27:00;;;;;;;11.23;8.55;;;21.00;99.90;;;;;;5034114;28;20033;-51
2023/08/31 06:29:26;;;;;;;11.85;9.13;;;21.10;99.90;;;;;;5033899;28;20033;-56
2023/08/31 06:31:52;;;;;;;9.05;8.13;;;;;;;;;;5033746;28;20600;-55
2023/08/31 06:34:18;;;;;;;9.55;8.25;;;;;;;;;;5034069;28;20031;-52
2023/08/31 06:36:44;;;;;;;13.77;10.25;;;;;;;;;;5033685;28;20032;-54
2023/08/31 06:39:11;;;;;;;9.25;8.35;;;;;;;;;;4999083;28;20045;-53
2023/08/31 06:41:37;;;;;;;9.93;8.05;;;;;;;;;;5033595;28;20036;-51
2023/08/31 06:44:04;;;;;;;11.27;9.13;;;22.40;99.90;;;;;;5033947;28;20380;-51
2023/08/31 06:46:33;;;;;;;10.35;9.02;;;22.50;99.90;;;;;;5033543;28;20033;-53
2023/08/31 06:48:59;;;;;;;9.80;8.00;;;22.70;99.90;;;;;;5033517;28;20104;-56
2023/08/31 06:51:25;;;;;;;10.35;9.10;;;22.80;99.90;;;;;;5033500;28;20032;-51
2023/08/31 06:53:51;;;;;;;8.55;5.82;;;23.00;99.90;;;;;;4999032;28;20116;-56
2023/08/31 06:56:17;;;;;;;9.45;5.32;;;23.30;99.90;;;;;;5033341;28;20033;-56
2023/08/31 06:58:43;;;;;;;9.73;6.28;;;23.40;99.90;;;;;;5033334;28;20034;-55
2023/08/31 07:01:09;;;;;;;6.95;6.05;;;23.60;99.90;;;;;;5033294;28;20033;-51
2023/08/31 07:03:35;;;;;;;7.00;5.88;;;23.90;99.90;;;;;;5033333;28;20036;-54
2023/08/31 07:06:00;;;;;;;14.00;7.15;;;23.90;99.90;;;;;;5032979;28;20030;-57
2023/08/31 07:08:26;;;;;;;7.18;6.03;;;;;;;;;;4998950;28;20068;-57
2023/08/31 07:10:53;;;;;;;10.15;5.47;;;24.50;99.90;;;;;;5033486;28;20033;-55
2023/08/31 07:13:18;;;;;;;7.30;5.65;;;24.50;99.90;;;;;;5033219;28;20033;-56
2023/08/31 07:15:44;;;;;;;7.85;5.15;;;24.40;99.90;;;;;;5033151;28;20022;-56
2023/08/31 07:18:10;;;;;;;10.88;5.20;;;24.50;99.90;;;;;;5033378;28;20037;-51
2023/08/31 07:20:35;;;;;;;7.55;5.63;;;24.50;99.90;;;;;;5033666;28;20034;-53
2023/08/31 07:23:01;;;;;;;9.43;6.30;;;24.10;99.90;;;;;;5033192;28;20053;-51
2023/08/31 07:25:28;;;;;;;7.82;6.00;;;23.90;99.90;;;;;;5033074;28;20104;-58
2023/08/31 07:27:54;;;;;;;10.65;7.47;;;24.10;99.90;;;;;;5032921;28;20030;-55
2023/08/31 07:30:20;;;;;;;8.98;7.00;;;;;;;;;;5033104;28;20113;-55
2023/08/31 07:32:47;;;;;;;7.65;6.03;;;;;;;;;;5033084;28;20061;-54
2023/08/31 07:35:12;;;;;;;9.82;6.20;;;24.50;99.90;;;;;;4998651;28;20420;-56
2023/08/31 07:37:38;;;;;;;8.15;6.82;;;24.40;99.90;;;;;;4966025;28;20237;-56
2023/08/31 07:40:08;;;;;;;10.50;7.68;;;24.10;99.90;;;;;;5033474;28;20400;-53
2023/08/31 07:42:35;;;;;;;12.45;9.05;;;24.00;99.90;;;;;;4984076;28;20041;-54
2023/08/31 07:45:01;;;;;;;10.50;9.43;;;23.70;99.90;;;;;;5033071;28;20057;-54
2023/08/31 07:47:26;;;;;;;12.73;10.60;;;23.40;99.90;;;;;;5032798;28;20064;-55
2023/08/31 07:49:52;;;;;;;14.20;12.68;;;23.60;99.90;;;;;;5041297;28;20106;-58
2023/08/31 07:52:19;;;;;;;14.77;13.25;;;23.70;99.90;;;;;;5053069;28;20145;-54
2023/08/31 07:54:45;;;;;;;15.68;13.90;;;23.80;99.90;;;;;;5052609;28;20039;-58
2023/08/31 07:57:11;;;;;;;18.35;16.05;;;23.70;99.90;;;;;;5034307;28;20124;-56
2023/08/31 07:59:39;;;;;;;15.70;14.10;;;23.90;99.90;;;;;;5052939;28;20472;-57
2023/08/31 08:02:05;;;;;;;15.40;13.55;;;24.00;99.90;;;;;;5052839;28;20037;-56
2023/08/31 08:04:31;;;;;;;19.50;14.05;;;24.10;99.90;;;;;;5017641;28;20044;-54
2023/08/31 08:06:57;;;;;;;15.68;13.95;;;24.40;99.90;;;;;;4984510;28;20033;-52
2023/08/31 08:09:23;;;;;;;14.93;13.45;;;;;;;;;;5052289;28;20484;-52
2023/08/31 08:11:48;;;;;;;12.93;11.27;;;25.00;99.90;;;;;;5052718;28;20376;-57
2023/08/31 08:14:15;;;;;;;8.23;7.38;;;;;;;;;;5034336;28;20037;-54
2023/08/31 08:16:42;;;;;;;8.45;5.57;;;25.60;99.90;;;;;;5017913;28;20039;-53
2023/08/31 08:19:08;;;;;;;12.30;11.05;;;25.90;99.90;;;;;;5054631;28;20379;-52
2023/08/31 08:21:35;;;;;;;16.08;12.10;;;25.70;99.90;;;;;;5056413;28;20116;-55
2023/08/31 08:24:01;;;;;;;13.80;12.40;;;;;;;;;;5020804;28;20041;-55
2023/08/31 08:26:28;;;;;;;13.50;10.93;;;;;;;;;;5021085;28;20061;-56
2023/08/31 08:28:54;;;;;;;14.45;12.15;;;;;;;;;;5021532;28;20048;-54
2023/08/31 08:31:20;;;;;;;15.43;11.02;;;;;;;;;;5056007;28;20123;-57
2023/08/31 08:33:46;;;;;;;15.27;9.75;;;;;;;;;;5055944;28;20100;-54
2023/08/31 08:36:12;;;;;;;9.23;8.20;;;26.20;99.90;;;;;;5056054;28;20079;-52
2023/08/31 08:38:38;;;;;;;11.57;10.38;;;;;;;;;;5055875;28;20036;-54
2023/08/31 08:41:08;;;;;;;11.55;10.05;;;;;;;;;;5055917;28;20021;-57
2023/08/31 08:43:35;;;;;;;10.25;9.13;;;;;;;;;;5055649;28;20040;-53
2023/08/31 08:46:06;;;;;;;11.25;9.95;;;27.00;99.90;;;;;;5055964;28;20033;-54
2023/08/31 08:48:35;;;;;;;15.93;10.35;;;;;;;;;;5055806;28;20033;-53
2023/08/31 08:51:02;;;;;;;13.15;10.00;;;;;;;;;;5055331;28;20064;-56
2023/08/31 08:53:28;;;;;;;12.85;10.52;;;27.40;99.90;;;;;;5020657;28;20068;-55
2023/08/31 08:55:54;;;;;;;15.13;9.85;;;;;;;;;;5055418;28;20052;-54
2023/08/31 08:58:20;;;;;;;11.25;9.32;;;;;;;;;;5055603;28;20025;-54
2023/08/31 09:00:47;;;;;;;14.60;10.68;;;28.00;99.90;;;;;;4987978;28;20533;-54
2023/08/31 09:03:13;;;;;;;12.35;10.90;;;28.10;99.90;;;;;;5055410;28;20063;-53
2023/08/31 09:05:39;;;;;;;13.52;10.02;;;27.70;99.90;;;;;;5055359;28;20110;-54
2023/08/31 09:08:10;;;;;;;10.35;8.75;;;27.90;99.90;;;;;;5055639;28;20080;-53
2023/08/31 09:10:37;;;;;;;14.73;9.95;;;;;;;;;;5055505;28;20028;-54
2023/08/31 09:13:13;;;;;;;14.27;8.75;;;27.80;99.90;;;;;;5055350;28;20057;-54
2023/08/31 09:15:43;;;;;;;11.35;7.95;;;;;;;;;;5055119;28;20029;-55
2023/08/31 09:18:26;;;;;;;13.02;8.27;;;28.30;99.90;;;;;;5055258;28;20024;-53
2023/08/31 09:20:53;;;;;;;20.67;9.00;;;;;;;;;;5055342;28;20025;-58
2023/08/31 09:23:19;;;;;;;10.80;8.00;;;28.40;99.90;;;;;;5020235;28;20098;-55
2023/08/31 09:25:50;;;;;;;9.93;8.38;;;28.60;99.90;;;;;;5054909;28;20052;-56
2023/08/31 09:28:19;;;;;;;15.43;8.70;;;28.00;99.90;;;;;;5055210;28;20033;-54
2023/08/31 09:30:50;;;;;;;19.67;8.57;;;27.50;99.90;;;;;;5054956;28;20080;-54
2023/08/31 09:33:18;;;;;;;13.68;8.25;;;27.70;99.90;;;;;;5051511;28;20029;-57
2023/08/31 09:35:52;;;;;;;11.40;7.20;;;28.20;99.90;;;;;;5000202;28;20041;-55
2023/08/31 09:38:18;;;;;;;7.97;7.18;;;;;;;;;;5034793;28;20030;-56
2023/08/31 09:40:44;;;;;;;9.48;8.05;;;29.10;99.90;;;;;;5034702;28;20022;-54
2023/08/31 09:43:10;;;;;;;8.27;6.82;;;29.50;99.90;;;;;;5043811;28;20025;-52
2023/08/31 09:45:37;;;;;;;9.43;6.85;;;;;;;;;;5013615;28;20037;-56
2023/08/31 09:48:24;;;;;;;11.68;7.18;;;29.70;99.90;;;;;;5001804;28;20037;-57
2023/08/31 09:50:52;;;;;;;9.05;6.22;;;29.20;99.90;;;;;;4965808;28;20066;-56
2023/08/31 09:53:20;;;;;;;12.13;7.47;;;;;;;;;;4992809;28;20533;-54
2023/08/31 09:55:50;;;;;;;11.63;6.20;;;28.60;99.90;;;;;;4993023;28;20070;-55
2023/08/31 09:58:20;;;;;;;10.02;6.90;;;28.70;99.90;;;;;;4992798;28;20038;-55
2023/08/31 10:00:48;;;;;;;8.90;5.95;;;29.30;99.90;;;;;;4993011;28;20498;-54
2023/08/31 10:03:15;;;;;;;8.30;6.47;;;29.90;99.90;;;;;;4992613;28;20548;-52
2023/08/31 10:05:43;;;;;;;12.63;6.63;;;29.40;99.90;;;;;;4992750;28;20030;-53
2023/08/31 10:08:09;;;;;;;10.20;5.70;;;;;;;;;;4992760;28;20046;-56
2023/08/31 10:10:36;;;;;;;7.22;4.95;;;;;;;;;;4992030;28;20414;-53
2023/08/31 10:13:02;;;;;;;9.15;4.93;;;;;;;;;;4992584;28;20038;-56
2023/08/31 10:15:39;;;;;;;7.40;4.57;;;30.50;99.90;;;;;;4992136;28;20078;-55
2023/08/31 10:18:06;;;;;;;6.53;4.82;;;;;;;;;;4992704;28;20041;-57
2023/08/31 10:20:33;;;;;;;5.70;4.47;;;;;;;;;;4992554;28;20033;-56
2023/08/31 10:23:00;;;;;;;8.52;4.95;;;;;;;;;;4992576;28;20046;-54
2023/08/31 10:25:45;;;;;;;6.45;4.20;;;30.50;99.90;;;;;;4992496;28;20026;-54
2023/08/31 10:28:18;;;;;;;5.97;5.38;;;;;;;;;;5010921;28;20038;-53
2023/08/31 10:31:03;;;;;;;6.30;4.70;;;31.00;99.90;;;;;;4999154;28;20038;-56
2023/08/31 10:33:41;;;;;;;5.35;4.00;;;;;;;;;;5034161;28;20033;-54
2023/08/31 10:36:20;;;;;;;5.25;4.53;;;31.50;99.90;;;;;;5033687;28;20084;-53
2023/08/31 10:38:47;;;;;;;5.63;3.95;;;;;;;;;;5033770;28;20128;-54
2023/08/31 10:41:14;;;;;;;7.07;3.92;;;;;;;;;;5033561;28;20113;-53
2023/08/31 10:43:47;;;;;;;4.93;3.55;;;;;;;;;;4999119;28;20041;-52
2023/08/31 10:46:38;;;;;;;5.32;4.82;;;30.90;99.90;;;;;;5033715;28;20029;-53
2023/08/31 10:49:10;;;;;;;4.78;3.83;;;;;;;;;;5026611;28;20492;-52
2023/08/31 10:51:40;;;;;;;7.35;6.10;;;31.60;99.90;;;;;;5033415;28;20041;-54
2023/08/31 10:54:21;;;;;;;6.80;5.05;;;30.80;99.90;;;;;;5033386;28;20025;-54
2023/08/31 10:57:07;;;;;;;6.68;4.78;;;30.40;99.90;;;;;;4982444;28;20033;-53
2023/08/31 10:59:51;;;;;;;6.72;5.38;;;30.80;99.90;;;;;;5033415;28;20033;-56
2023/08/31 11:02:35;;;;;;;5.43;4.85;;;31.00;99.90;;;;;;5032707;28;20079;-54
2023/08/31 11:05:11;;;;;;;6.93;6.22;;;31.10;99.90;;;;;;5030565;28;20051;-54
2023/08/31 11:07:40;;;;;;;14.27;12.80;;;30.50;99.90;;;;;;4998406;28;20045;-52
2023/08/31 11:10:34;;;;;;;16.33;14.68;;;30.40;99.90;;;;;;5032774;28;20033;-54
2023/08/31 11:13:00;;;;;;;10.70;8.32;;;30.30;99.90;;;;;;5030278;28;20087;-54
2023/08/31 11:15:29;;;;;;;7.03;6.25;;;30.50;99.90;;;;;;5033468;28;20033;-51
2023/08/31 11:17:56;;;;;;;6.25;4.13;;;30.90;99.90;;;;;;5033503;28;20091;-55
2023/08/31 11:20:27;;;;;;;5.35;4.28;;;30.90;99.90;;;;;;4965960;28;20056;-55
2023/08/31 11:22:54;;;;;;;5.10;4.30;;;31.10;99.90;;;;;;5033389;28;20038;-55
2023/08/31 11:25:21;;;;;;;8.95;5.07;;;31.30;99.90;;;;;;5033352;28;20473;-55
2023/08/31 11:27:54;;;;;;;5.65;4.30;;;31.50;99.90;;;;;;5033238;28;20421;-54
2023/08/31 11:30:20;;;;;;;4.82;3.45;;;31.30;99.90;;;;;;5033103;28;20400;-57
2023/08/31 11:32:51;;;;;;;5.10;4.32;;;31.40;99.90;;;;;;5033432;28;20045;-53
2023/08/31 11:35:18;;;;;;;3.85;3.17;;;31.40;99.90;;;;;;5033551;28;20045;-54
2023/08/31 11:37:45;;;;;;;5.75;3.47;;;31.50;99.90;;;;;;5033270;28;20080;-53
2023/08/31 11:40:14;;;;;;;3.83;3.38;;;31.40;99.90;;;;;;5032885;28;20029;-54
2023/08/31 11:42:40;;;;;;;4.55;3.17;;;31.40;99.90;;;;;;5033758;28;20112;-53
2023/08/31 11:45:07;;;;;;;5.72;3.60;;;30.90;99.90;;;;;;5033049;28;20053;-53
2023/08/31 11:47:33;;;;;;;5.88;3.40;;;31.50;99.90;;;;;;4982437;28;20038;-54
2023/08/31 11:50:01;;;;;;;3.70;2.90;;;31.80;99.90;;;;;;5042338;28;20056;-54
2023/08/31 11:52:27;;;;;;;3.90;2.70;;;31.40;99.90;;;;;;5052699;28;20048;-53
2023/08/31 11:54:54;;;;;;;3.85;3.10;;;31.40;99.90;;;;;;5056073;28;20392;-53
2023/08/31 11:57:20;;;;;;;3.53;2.90;;;;;;;;;;5021681;28;20037;-55
2023/08/31 11:59:46;;;;;;;3.92;2.88;;;31.50;99.90;;;;;;5053818;28;20025;-55
2023/08/31 12:02:12;;;;;;;3.58;3.03;;;;;;;;;;5056411;28;20032;-54
2023/08/31 12:04:44;;;;;;;4.15;2.95;;;32.10;99.90;;;;;;5056624;28;20067;-53
2023/08/31 12:07:11;;;;;;;6.93;3.15;;;31.90;99.90;;;;;;5051237;28;20083;-52
2023/08/31 12:09:37;;;;;;;4.47;3.03;;;31.40;99.90;;;;;;5038051;28;20059;-52
2023/08/31 12:12:06;;;;;;;5.40;3.60;;;;;;;;;;5056355;28;20516;-53
2023/08/31 12:14:32;;;;;;;5.28;3.17;;;;;;;;;;5022296;28;20051;-54
2023/08/31 12:17:03;;;;;;;4.45;2.90;;;30.70;99.90;;;;;;5056390;28;20017;-55
2023/08/31 12:19:30;;;;;;;4.22;2.78;;;;;;;;;;5057012;28;20132;-56
2023/08/31 12:21:58;;;;;;;4.30;2.72;;;;;;;;;;5056469;28;20484;-55
2023/08/31 12:24:25;;;;;;;3.88;2.67;;;31.50;99.90;;;;;;5056226;28;20033;-55
2023/08/31 12:26:55;;;;;;;2.88;2.40;;;;;;;;;;5056219;28;20087;-53
2023/08/31 12:29:21;;;;;;;3.53;2.40;;;30.60;99.90;;;;;;5056271;28;20033;-51
2023/08/31 12:31:47;;;;;;;2.78;2.30;;;30.80;99.90;;;;;;5020961;28;20059;-54
2023/08/31 12:34:13;;;;;;;2.95;2.40;;;31.30;99.90;;;;;;5056171;28;20037;-56
2023/08/31 12:36:41;;;;;;;4.25;2.30;;;;;;;;;;5021192;28;20037;-55
2023/08/31 12:39:10;;;;;;;5.85;2.13;;;;;;;;;;5055992;28;20028;-52
2023/08/31 12:41:36;;;;;;;3.45;2.10;;;;;;;;;;5055998;28;20029;-52
2023/08/31 12:44:06;;;;;;;4.38;2.35;;;;;;;;;;5056170;28;20094;-53
2023/08/31 12:46:33;;;;;;;3.33;2.38;;;;;;;;;;5020722;28;20033;-53
2023/08/31 12:49:00;;;;;;;3.72;2.22;;;;;;;;;;5055718;28;20025;-53
2023/08/31 12:51:27;;;;;;;3.85;2.45;;;;;;;;;;5055736;28;20068;-56
2023/08/31 12:53:53;;;;;;;4.90;2.40;;;;;;;;;;5055574;28;20064;-54
2023/08/31 12:56:22;;;;;;;3.85;2.30;;;;;;;;;;5055551;28;20055;-51
2023/08/31 12:58:52;;;;;;;3.35;2.05;;;31.90;99.90;;;;;;5055585;28;20472;-52
2023/08/31 13:01:19;;;;;;;4.70;2.20;;;31.90;99.90;;;;;;5055279;28;20074;-54
2023/08/31 13:03:46;;;;;;;4.72;2.10;;;;;;;;;;5036863;28;20118;-52
2023/08/31 13:06:12;;;;;;;2.03;1.58;;;32.50;99.40;;;;;;5055753;28;20495;-53
2023/08/31 13:08:39;;;;;;;2.15;1.80;;;;;;;;;;5055362;28;20052;-55
2023/08/31 13:11:05;;;;;;;2.92;1.92;;;;;;;;;;5054191;28;20033;-54